createdAt,value
2017-10-19T00:00:31.681Z,0
2017-10-19T00:01:34.111Z,0
2017-10-19T00:02:36.537Z,0
2017-10-19T00:03:38.970Z,0
2017-10-19T00:04:41.400Z,0
2017-10-19T00:05:43.836Z,0
2017-10-19T00:06:46.257Z,0
2017-10-19T00:07:49.058Z,0
2017-10-19T00:08:51.486Z,0
2017-10-19T00:09:53.918Z,0
2017-10-19T00:10:56.351Z,0
2017-10-19T00:11:58.783Z,0
2017-10-19T00:13:01.209Z,0
2017-10-19T00:14:03.643Z,0
2017-10-19T00:15:06.429Z,0
2017-10-19T00:16:08.865Z,0
2017-10-19T00:17:11.290Z,0
2017-10-19T00:18:14.085Z,0
2017-10-19T00:19:16.512Z,0
2017-10-19T00:20:18.930Z,0
2017-10-19T00:21:21.367Z,0
2017-10-19T00:22:24.155Z,0
2017-10-19T00:23:26.579Z,0
2017-10-19T00:24:29.016Z,0
2017-10-19T00:25:31.443Z,0
2017-10-19T00:26:33.862Z,0
2017-10-19T00:27:36.314Z,0
2017-10-19T00:28:39.089Z,0
2017-10-19T00:29:41.522Z,0
2017-10-19T00:30:43.952Z,0
2017-10-19T00:31:46.385Z,0
2017-10-19T00:32:48.808Z,0
2017-10-19T00:33:51.249Z,0
2017-10-19T00:34:53.680Z,0
2017-10-19T00:35:56.114Z,0
2017-10-19T00:36:58.539Z,0
2017-10-19T00:38:00.968Z,0
2017-10-19T00:39:03.397Z,0
2017-10-19T00:40:05.821Z,0
2017-10-19T00:41:08.244Z,0
2017-10-19T00:42:10.682Z,0
2017-10-19T00:43:13.114Z,0
2017-10-19T00:44:15.543Z,0
2017-10-19T00:45:18.348Z,0
2017-10-19T00:46:20.790Z,0
2017-10-19T00:47:23.216Z,0
2017-10-19T00:48:25.648Z,0
2017-10-19T00:49:28.076Z,0
2017-10-19T00:50:30.878Z,0
2017-10-19T00:51:33.305Z,0
2017-10-19T00:52:35.740Z,0
2017-10-19T00:53:38.180Z,0
2017-10-19T00:54:40.608Z,0
2017-10-19T00:55:43.039Z,0
2017-10-19T00:56:45.477Z,0
2017-10-19T00:57:47.902Z,0
2017-10-19T00:58:50.339Z,0
2017-10-19T00:59:52.774Z,0
2017-10-19T01:00:55.188Z,0
2017-10-19T01:01:57.627Z,0
2017-10-19T01:03:00.060Z,0
2017-10-19T01:04:02.842Z,0
2017-10-19T01:05:05.292Z,0
2017-10-19T01:06:07.701Z,0
2017-10-19T01:07:10.498Z,0
2017-10-19T01:08:12.934Z,0
2017-10-19T01:09:15.362Z,0
2017-10-19T01:10:17.796Z,0
2017-10-19T01:11:20.229Z,0
2017-10-19T01:12:22.665Z,0
2017-10-19T01:13:25.109Z,0
2017-10-19T01:14:27.540Z,0
2017-10-19T01:15:30.315Z,0
2017-10-19T01:16:33.134Z,0
2017-10-19T01:17:35.568Z,0
2017-10-19T01:18:38.005Z,0
2017-10-19T01:19:40.440Z,0
2017-10-19T01:20:43.238Z,0
2017-10-19T01:21:45.668Z,0
2017-10-19T01:22:48.104Z,0
2017-10-19T01:23:50.532Z,0
2017-10-19T01:24:52.977Z,0
2017-10-19T01:25:55.398Z,0
2017-10-19T01:26:57.864Z,0
2017-10-19T01:28:00.265Z,0
2017-10-19T01:29:02.701Z,0
2017-10-19T01:30:05.127Z,0
2017-10-19T01:31:07.575Z,0
2017-10-19T01:32:09.993Z,0
2017-10-19T01:33:12.430Z,0
2017-10-19T01:34:14.850Z,0
2017-10-19T01:35:17.293Z,0
2017-10-19T01:36:19.714Z,0
2017-10-19T01:37:22.145Z,0
2017-10-19T01:38:24.570Z,0
2017-10-19T01:39:27.017Z,0
2017-10-19T01:40:29.438Z,0
2017-10-19T01:41:32.238Z,0
2017-10-19T01:42:34.669Z,0
2017-10-19T01:43:37.097Z,0
2017-10-19T01:44:39.526Z,0
2017-10-19T01:45:41.955Z,0
2017-10-19T01:46:44.379Z,0
2017-10-19T01:47:46.822Z,0
2017-10-19T01:48:49.628Z,0
2017-10-19T01:49:52.065Z,0
2017-10-19T01:50:54.510Z,0
2017-10-19T01:51:56.924Z,0
2017-10-19T01:52:59.361Z,0
2017-10-19T01:54:01.787Z,0
2017-10-19T01:55:04.219Z,0
2017-10-19T01:56:06.647Z,0
2017-10-19T01:57:09.422Z,0
2017-10-19T01:58:11.866Z,0
2017-10-19T01:59:14.291Z,0
2017-10-19T02:00:17.086Z,0
2017-10-19T02:01:19.518Z,0
2017-10-19T02:02:21.955Z,0
2017-10-19T02:03:24.395Z,0
2017-10-19T02:04:26.831Z,0
2017-10-19T02:05:29.249Z,0
2017-10-19T02:06:31.679Z,0
2017-10-19T02:07:34.130Z,0
2017-10-19T02:08:36.555Z,0
2017-10-19T02:09:38.987Z,0
2017-10-19T02:10:41.413Z,0
2017-10-19T02:11:43.844Z,0
2017-10-19T02:12:46.272Z,0
2017-10-19T02:13:48.708Z,0
2017-10-19T02:14:51.130Z,0
2017-10-19T02:15:53.935Z,0
2017-10-19T02:16:56.372Z,0
2017-10-19T02:17:58.803Z,0
2017-10-19T02:19:01.232Z,0
2017-10-19T02:20:03.668Z,0
2017-10-19T02:21:06.102Z,0
2017-10-19T02:22:08.530Z,0
2017-10-19T02:23:11.318Z,0
2017-10-19T02:24:13.752Z,0
2017-10-19T02:25:16.189Z,0
2017-10-19T02:26:18.615Z,0
2017-10-19T02:27:21.050Z,0
2017-10-19T02:28:23.828Z,0
2017-10-19T02:29:26.279Z,0
2017-10-19T02:30:29.060Z,0
2017-10-19T02:31:31.481Z,0
2017-10-19T02:32:33.923Z,0
2017-10-19T02:33:36.354Z,0
2017-10-19T02:34:38.792Z,0
2017-10-19T02:35:41.222Z,0
2017-10-19T02:36:43.661Z,0
2017-10-19T02:37:46.088Z,0
2017-10-19T02:38:48.527Z,0
2017-10-19T02:39:50.944Z,0
2017-10-19T02:40:53.381Z,0
2017-10-19T02:41:55.816Z,0
2017-10-19T02:42:58.237Z,0
2017-10-19T02:44:00.675Z,0
2017-10-19T02:45:03.105Z,0
2017-10-19T02:46:05.540Z,0
2017-10-19T02:47:07.971Z,0
2017-10-19T02:48:10.413Z,0
2017-10-19T02:49:12.839Z,0
2017-10-19T02:50:15.273Z,0
2017-10-19T02:51:17.706Z,0
2017-10-19T02:52:20.138Z,0
2017-10-19T02:53:22.549Z,0
2017-10-19T02:54:25.001Z,0
2017-10-19T02:55:27.770Z,0
2017-10-19T02:56:30.200Z,0
2017-10-19T02:57:32.633Z,0
2017-10-19T02:58:35.059Z,0
2017-10-19T02:59:37.493Z,0
2017-10-19T03:00:39.928Z,0
2017-10-19T03:01:42.361Z,0
2017-10-19T03:02:44.798Z,0
2017-10-19T03:03:47.619Z,0
2017-10-19T03:04:50.037Z,0
2017-10-19T03:05:52.474Z,0
2017-10-19T03:06:54.899Z,0
2017-10-19T03:07:57.331Z,0
2017-10-19T03:08:59.771Z,0
2017-10-19T03:10:02.195Z,0
2017-10-19T03:11:04.629Z,0
2017-10-19T03:12:07.072Z,0
2017-10-19T03:13:09.496Z,0
2017-10-19T03:14:11.934Z,0
2017-10-19T03:15:14.359Z,0
2017-10-19T03:16:17.147Z,0
2017-10-19T03:17:19.573Z,0
2017-10-19T03:18:22.000Z,0
2017-10-19T03:19:24.444Z,0
2017-10-19T03:20:26.874Z,0
2017-10-19T03:21:29.293Z,0
2017-10-19T03:22:31.729Z,0
2017-10-19T03:23:34.522Z,0
2017-10-19T03:24:36.952Z,0
2017-10-19T03:25:39.387Z,0
2017-10-19T03:26:41.811Z,0
2017-10-19T03:27:44.232Z,0
2017-10-19T03:28:46.685Z,0
2017-10-19T03:29:49.114Z,0
2017-10-19T03:30:51.540Z,0
2017-10-19T03:31:53.978Z,0
2017-10-19T03:32:56.407Z,0
2017-10-19T03:33:58.843Z,0
2017-10-19T03:35:01.275Z,0
2017-10-19T03:36:03.708Z,0
2017-10-19T03:37:06.139Z,0
2017-10-19T03:38:08.570Z,0
2017-10-19T03:39:10.997Z,0
2017-10-19T03:40:13.818Z,0
2017-10-19T03:41:16.248Z,0
2017-10-19T03:42:19.034Z,0
2017-10-19T03:43:21.825Z,0
2017-10-19T03:44:24.251Z,0
2017-10-19T03:45:26.686Z,0
2017-10-19T03:46:29.122Z,0
2017-10-19T03:47:31.555Z,0
2017-10-19T03:48:34.343Z,0
2017-10-19T03:49:36.770Z,0
2017-10-19T03:50:39.200Z,0
2017-10-19T03:51:41.628Z,0
2017-10-19T03:52:44.077Z,0
2017-10-19T03:53:46.496Z,0
2017-10-19T03:54:48.935Z,0
2017-10-19T03:55:51.358Z,0
2017-10-19T03:56:53.783Z,0
2017-10-19T03:57:56.218Z,0
2017-10-19T03:58:58.654Z,0
2017-10-19T04:00:01.072Z,0
2017-10-19T04:01:03.516Z,0
2017-10-19T04:02:05.929Z,0
2017-10-19T04:03:08.369Z,0
2017-10-19T04:04:11.157Z,0
2017-10-19T04:05:13.594Z,0
2017-10-19T04:06:16.028Z,0
2017-10-19T04:07:18.465Z,0
2017-10-19T04:08:20.902Z,0
2017-10-19T04:09:23.340Z,0
2017-10-19T04:10:25.771Z,0
2017-10-19T04:11:28.206Z,0
2017-10-19T04:12:30.635Z,0
2017-10-19T04:13:33.074Z,0
2017-10-19T04:14:35.500Z,0
2017-10-19T04:15:37.936Z,0
2017-10-19T04:16:40.362Z,0
2017-10-19T04:17:43.160Z,0
2017-10-19T04:18:45.952Z,0
2017-10-19T04:19:48.389Z,0
2017-10-19T04:20:50.824Z,0
2017-10-19T04:21:53.250Z,0
2017-10-19T04:22:55.687Z,0
2017-10-19T04:23:58.113Z,0
2017-10-19T04:25:00.540Z,0
2017-10-19T04:26:02.987Z,0
2017-10-19T04:27:05.419Z,0
2017-10-19T04:28:07.841Z,0
2017-10-19T04:29:10.278Z,0
2017-10-19T04:30:12.713Z,0
2017-10-19T04:31:15.145Z,0
2017-10-19T04:32:17.574Z,0
2017-10-19T04:33:20.354Z,0
2017-10-19T04:34:22.786Z,0
2017-10-19T04:35:25.240Z,0
2017-10-19T04:36:27.661Z,0
2017-10-19T04:37:30.084Z,0
2017-10-19T04:38:32.527Z,0
2017-10-19T04:39:34.957Z,0
2017-10-19T04:40:37.396Z,0
2017-10-19T04:41:39.830Z,0
2017-10-19T04:42:42.256Z,0
2017-10-19T04:43:44.686Z,0
2017-10-19T04:44:47.130Z,0
2017-10-19T04:45:49.552Z,0
2017-10-19T04:46:51.989Z,0
2017-10-19T04:47:54.421Z,0
2017-10-19T04:48:56.858Z,0
2017-10-19T04:49:59.291Z,0
2017-10-19T04:51:01.724Z,0
2017-10-19T04:52:04.163Z,0
2017-10-19T04:53:06.589Z,0
2017-10-19T04:54:09.018Z,0
2017-10-19T04:55:11.449Z,0
2017-10-19T04:56:13.879Z,0
2017-10-19T04:57:16.315Z,0
2017-10-19T04:58:18.738Z,0
2017-10-19T04:59:21.174Z,0
2017-10-19T05:00:23.963Z,0
2017-10-19T05:01:26.387Z,0
2017-10-19T05:02:28.820Z,0
2017-10-19T05:03:31.262Z,0
2017-10-19T05:04:33.690Z,0
2017-10-19T05:05:36.122Z,0
2017-10-19T05:06:38.556Z,0
2017-10-19T05:07:40.982Z,0
2017-10-19T05:08:43.425Z,0
2017-10-19T05:09:45.865Z,0
2017-10-19T05:10:48.283Z,0
2017-10-19T05:11:50.718Z,0
2017-10-19T05:12:53.159Z,0
2017-10-19T05:13:55.599Z,0
2017-10-19T05:14:58.392Z,0
2017-10-19T05:16:00.846Z,4
2017-10-19T05:17:03.277Z,4
2017-10-19T05:18:05.703Z,0
2017-10-19T05:19:08.489Z,4
2017-10-19T05:20:10.917Z,4
2017-10-19T05:21:13.349Z,4
2017-10-19T05:22:15.781Z,8
2017-10-19T05:23:18.206Z,8
2017-10-19T05:24:20.998Z,8
2017-10-19T05:25:23.434Z,12
2017-10-19T05:26:25.862Z,16
2017-10-19T05:27:29.334Z,16
2017-10-19T05:28:33.659Z,20
2017-10-19T05:29:36.704Z,24
2017-10-19T05:30:39.872Z,28
2017-10-19T05:31:43.674Z,32
2017-10-19T05:32:48.105Z,36
2017-10-19T05:33:55.927Z,40
2017-10-19T05:34:58.359Z,48
2017-10-19T05:36:00.797Z,64
2017-10-19T05:37:03.210Z,76
2017-10-19T05:38:05.640Z,88
2017-10-19T05:39:08.077Z,104
2017-10-19T05:40:10.510Z,128
2017-10-19T05:41:12.947Z,144
2017-10-19T05:42:15.367Z,164
2017-10-19T05:43:17.786Z,184
2017-10-19T05:44:20.239Z,216
2017-10-19T05:45:23.016Z,244
2017-10-19T05:46:25.803Z,276
2017-10-19T05:47:28.240Z,308
2017-10-19T05:48:30.676Z,332
2017-10-19T05:49:33.098Z,360
2017-10-19T05:50:35.895Z,384
2017-10-19T05:51:38.722Z,408
2017-10-19T05:52:41.117Z,432
2017-10-19T05:53:43.560Z,460
2017-10-19T05:54:45.968Z,488
2017-10-19T05:55:48.395Z,516
2017-10-19T05:56:50.838Z,544
2017-10-19T05:57:53.271Z,572
2017-10-19T05:58:55.685Z,608
2017-10-19T05:59:58.122Z,652
2017-10-19T06:01:00.536Z,708
2017-10-19T06:02:02.979Z,780
2017-10-19T06:03:05.413Z,852
2017-10-19T06:04:07.838Z,912
2017-10-19T06:05:10.269Z,956
2017-10-19T06:06:12.705Z,992
2017-10-19T06:07:15.137Z,1024
2017-10-19T06:08:17.579Z,1056
2017-10-19T06:09:20.004Z,1084
2017-10-19T06:10:22.430Z,1112
2017-10-19T06:11:24.867Z,1140
2017-10-19T06:12:27.346Z,1180
2017-10-19T06:13:30.261Z,1224
2017-10-19T06:14:33.170Z,1268
2017-10-19T06:15:37.554Z,1320
2017-10-19T06:16:40.966Z,1376
2017-10-19T06:17:44.253Z,1436
2017-10-19T06:18:47.904Z,1488
2017-10-19T06:19:50.782Z,1540
2017-10-19T06:20:54.149Z,1596
2017-10-19T06:21:57.661Z,1648
2017-10-19T06:23:01.203Z,1704
2017-10-19T06:24:04.656Z,1764
2017-10-19T06:25:07.663Z,1832
2017-10-19T06:26:11.129Z,1912
2017-10-19T06:27:14.376Z,2000
2017-10-19T06:28:17.425Z,2084
2017-10-19T06:29:21.047Z,2160
2017-10-19T06:30:24.373Z,2244
2017-10-19T06:31:27.919Z,2336
2017-10-19T06:32:30.676Z,2436
2017-10-19T06:33:34.163Z,2524
2017-10-19T06:34:37.248Z,2592
2017-10-19T06:35:40.653Z,2656
2017-10-19T06:36:43.664Z,2724
2017-10-19T06:37:46.412Z,2800
2017-10-19T06:38:50.397Z,2884
2017-10-19T06:39:53.353Z,2968
2017-10-19T06:40:57.100Z,3072
2017-10-19T06:42:00.290Z,3192
2017-10-19T06:43:04.078Z,3288
2017-10-19T06:44:07.028Z,3380
2017-10-19T06:45:09.459Z,3476
2017-10-19T06:46:11.886Z,3560
2017-10-19T06:47:14.325Z,3632
2017-10-19T06:48:16.752Z,3708
2017-10-19T06:49:19.182Z,3788
2017-10-19T06:50:21.619Z,3872
2017-10-19T06:51:24.046Z,3972
2017-10-19T06:52:26.482Z,4144
2017-10-19T06:53:28.907Z,4368
2017-10-19T06:54:31.339Z,4652
2017-10-19T06:55:33.769Z,4952
2017-10-19T06:56:36.218Z,5204
2017-10-19T06:57:38.644Z,5412
2017-10-19T06:58:41.186Z,5568
2017-10-19T06:59:45.356Z,6028
2017-10-19T07:00:50.835Z,6568
2017-10-19T07:01:54.048Z,6948
2017-10-19T07:03:00.775Z,7112
2017-10-19T07:04:03.210Z,7804
2017-10-19T07:05:05.632Z,8496
2017-10-19T07:06:08.069Z,8612
2017-10-19T07:07:10.491Z,8392
2017-10-19T07:08:12.928Z,8016
2017-10-19T07:09:16.078Z,8308
2017-10-19T07:10:18.510Z,8664
2017-10-19T07:11:21.299Z,9344
2017-10-19T07:12:23.735Z,10112
2017-10-19T07:13:26.531Z,10720
2017-10-19T07:14:28.958Z,11684
2017-10-19T07:15:31.397Z,12388
2017-10-19T07:16:33.824Z,12364
2017-10-19T07:17:36.606Z,12132
2017-10-19T07:18:39.038Z,11864
2017-10-19T07:19:41.844Z,11828
2017-10-19T07:20:44.272Z,11580
2017-10-19T07:21:46.721Z,10548
2017-10-19T07:22:49.489Z,11576
2017-10-19T07:23:51.924Z,12420
2017-10-19T07:24:54.355Z,12312
2017-10-19T07:25:56.782Z,12700
2017-10-19T07:26:59.223Z,13828
2017-10-19T07:28:01.649Z,14352
2017-10-19T07:29:04.084Z,15632
2017-10-19T07:30:06.516Z,18080
2017-10-19T07:31:08.954Z,19328
2017-10-19T07:32:11.379Z,17664
2017-10-19T07:33:13.815Z,16760
2017-10-19T07:34:16.242Z,19424
2017-10-19T07:35:18.676Z,20064
2017-10-19T07:36:21.115Z,21504
2017-10-19T07:37:23.544Z,23264
2017-10-19T07:38:25.979Z,24128
2017-10-19T07:39:28.420Z,26368
2017-10-19T07:40:30.848Z,29280
2017-10-19T07:41:33.287Z,30336
2017-10-19T07:42:35.711Z,28384
2017-10-19T07:43:38.153Z,30720
2017-10-19T07:44:40.579Z,33952
2017-10-19T07:45:43.025Z,34144
2017-10-19T07:46:45.440Z,34080
2017-10-19T07:47:47.872Z,34304
2017-10-19T07:48:50.315Z,36576
2017-10-19T07:49:53.102Z,37280
2017-10-19T07:50:55.541Z,36832
2017-10-19T07:51:57.972Z,35392
2017-10-19T07:53:00.410Z,35584
2017-10-19T07:54:02.856Z,35520
2017-10-19T07:55:05.295Z,32160
2017-10-19T07:56:07.720Z,26496
2017-10-19T07:57:10.517Z,23424
2017-10-19T07:58:12.950Z,23616
2017-10-19T07:59:15.748Z,30944
2017-10-19T08:00:18.191Z,29824
2017-10-19T08:01:20.616Z,29920
2017-10-19T08:02:23.056Z,26720
2017-10-19T08:03:25.493Z,20640
2017-10-19T08:04:27.986Z,18048
2017-10-19T08:05:30.412Z,17056
2017-10-19T08:06:32.856Z,17508
2017-10-19T08:07:35.294Z,16268
2017-10-19T08:08:37.730Z,15128
2017-10-19T08:09:40.154Z,14904
2017-10-19T08:10:42.593Z,14912
2017-10-19T08:11:45.023Z,14600
2017-10-19T08:12:47.472Z,13164
2017-10-19T08:13:50.255Z,13080
2017-10-19T08:14:52.677Z,13512
2017-10-19T08:15:55.468Z,16080
2017-10-19T08:16:57.901Z,22496
2017-10-19T08:18:00.337Z,18272
2017-10-19T08:19:02.769Z,28352
2017-10-19T08:20:05.224Z,25664
2017-10-19T08:21:07.647Z,21664
2017-10-19T08:22:10.094Z,24960
2017-10-19T08:23:12.530Z,23616
2017-10-19T08:24:14.957Z,28064
2017-10-19T08:25:17.389Z,32320
2017-10-19T08:26:19.825Z,33536
2017-10-19T08:27:22.247Z,34176
2017-10-19T08:28:24.690Z,36032
2017-10-19T08:29:27.509Z,36704
2017-10-19T08:30:29.926Z,36992
2017-10-19T08:31:32.354Z,38464
2017-10-19T08:32:34.795Z,38976
2017-10-19T08:33:37.230Z,41952
2017-10-19T08:34:39.672Z,41152
2017-10-19T08:35:42.104Z,36576
2017-10-19T08:36:44.546Z,33856
2017-10-19T08:37:46.984Z,34048
2017-10-19T08:38:49.418Z,36384
2017-10-19T08:39:51.851Z,39936
2017-10-19T08:40:54.292Z,44256
2017-10-19T08:41:56.726Z,42496
2017-10-19T08:42:59.162Z,43232
2017-10-19T08:44:01.610Z,44800
2017-10-19T08:45:04.053Z,45280
2017-10-19T08:46:06.477Z,47232
2017-10-19T08:47:08.918Z,47872
2017-10-19T08:48:11.360Z,46144
2017-10-19T08:49:13.794Z,45344
2017-10-19T08:50:16.237Z,47008
2017-10-19T08:51:18.668Z,50464
2017-10-19T08:52:21.099Z,51936
2017-10-19T08:53:23.912Z,48704
2017-10-19T08:54:26.699Z,52864
2017-10-19T08:55:29.138Z,50624
2017-10-19T08:56:31.578Z,51968
2017-10-19T08:57:34.023Z,54976
2017-10-19T08:58:36.457Z,55008
2017-10-19T08:59:39.252Z,54304
2017-10-19T09:00:41.684Z,55840
2017-10-19T09:01:44.131Z,59008
2017-10-19T09:02:46.565Z,58880
2017-10-19T09:03:49.012Z,57600
2017-10-19T09:04:51.450Z,59968
2017-10-19T09:05:53.902Z,60960
2017-10-19T09:06:56.347Z,57952
2017-10-19T09:07:58.793Z,58400
2017-10-19T09:09:01.594Z,61792
2017-10-19T09:10:04.057Z,66496
2017-10-19T09:11:06.496Z,72320
2017-10-19T09:12:08.945Z,70016
2017-10-19T09:13:11.382Z,75360
2017-10-19T09:14:13.832Z,73280
2017-10-19T09:15:16.271Z,63616
2017-10-19T09:16:18.714Z,57856
2017-10-19T09:17:21.296Z,54304
2017-10-19T09:18:23.742Z,46912
2017-10-19T09:19:26.189Z,64576
2017-10-19T09:20:28.623Z,53504
2017-10-19T09:21:31.064Z,51520
2017-10-19T09:22:33.507Z,51456
2017-10-19T09:23:35.944Z,71872
2017-10-19T09:24:38.396Z,56672
2017-10-19T09:25:40.838Z,64128
2017-10-19T09:26:43.286Z,58016
2017-10-19T09:27:45.732Z,55840
2017-10-19T09:28:48.165Z,44288
2017-10-19T09:29:50.606Z,38656
2017-10-19T09:30:53.061Z,38272
2017-10-19T09:31:55.502Z,42144
2017-10-19T09:32:58.293Z,37408
2017-10-19T09:34:00.739Z,36512
2017-10-19T09:35:03.175Z,35008
2017-10-19T09:36:05.628Z,33248
2017-10-19T09:37:08.075Z,33952
2017-10-19T09:38:10.499Z,39456
2017-10-19T09:39:12.950Z,31904
2017-10-19T09:40:15.746Z,29984
2017-10-19T09:41:18.193Z,27872
2017-10-19T09:42:20.634Z,27360
2017-10-19T09:43:23.079Z,27296
2017-10-19T09:44:25.528Z,27456
2017-10-19T09:45:27.954Z,27776
2017-10-19T09:46:30.401Z,28608
2017-10-19T09:47:32.835Z,28704
2017-10-19T09:48:35.277Z,30208
2017-10-19T09:49:37.726Z,32032
2017-10-19T09:50:40.160Z,31360
2017-10-19T09:51:42.600Z,30912
2017-10-19T09:52:45.052Z,31200
2017-10-19T09:53:47.488Z,30944
2017-10-19T09:54:50.285Z,30944
2017-10-19T09:55:52.720Z,30816
2017-10-19T09:56:55.160Z,31648
2017-10-19T09:57:57.607Z,32032
2017-10-19T09:59:00.049Z,33056
2017-10-19T10:00:02.826Z,32320
2017-10-19T10:01:05.269Z,32896
2017-10-19T10:02:07.709Z,32736
2017-10-19T10:03:10.142Z,35712
2017-10-19T10:04:12.578Z,34272
2017-10-19T10:05:15.017Z,37408
2017-10-19T10:06:17.444Z,39584
2017-10-19T10:07:19.895Z,38848
2017-10-19T10:08:22.335Z,51968
2017-10-19T10:09:24.773Z,72256
2017-10-19T10:10:27.215Z,66176
2017-10-19T10:11:29.655Z,62752
2017-10-19T10:12:32.096Z,55392
2017-10-19T10:13:34.539Z,47392
2017-10-19T10:14:37.332Z,69248
2017-10-19T10:15:40.125Z,59776
2017-10-19T10:16:42.930Z,69312
2017-10-19T10:17:45.737Z,72352
2017-10-19T10:18:48.180Z,71104
2017-10-19T10:19:50.615Z,69312
2017-10-19T10:20:53.067Z,69088
2017-10-19T10:21:55.504Z,62848
2017-10-19T10:22:57.944Z,61216
2017-10-19T10:24:00.386Z,70976
2017-10-19T10:25:03.546Z,73248
2017-10-19T10:26:05.995Z,70912
2017-10-19T10:27:08.441Z,63648
2017-10-19T10:28:10.883Z,41664
2017-10-19T10:29:13.685Z,43488
2017-10-19T10:30:16.132Z,49408
2017-10-19T10:31:18.572Z,54880
2017-10-19T10:32:21.017Z,51040
2017-10-19T10:33:23.810Z,60032
2017-10-19T10:34:26.245Z,68640
2017-10-19T10:35:28.695Z,79552
2017-10-19T10:36:31.131Z,58528
2017-10-19T10:37:33.581Z,81120
2017-10-19T10:38:36.024Z,62464
2017-10-19T10:39:38.469Z,79424
2017-10-19T10:40:40.920Z,77664
2017-10-19T10:41:43.728Z,77568
2017-10-19T10:42:46.174Z,74240
2017-10-19T10:43:48.628Z,72064
2017-10-19T10:44:51.419Z,68864
2017-10-19T10:45:53.867Z,68320
2017-10-19T10:46:56.670Z,75552
2017-10-19T10:47:59.112Z,79552
2017-10-19T10:49:01.556Z,78816
2017-10-19T10:50:04.008Z,75424
2017-10-19T10:51:06.442Z,72896
2017-10-19T10:52:08.893Z,72256
2017-10-19T10:53:11.341Z,71168
2017-10-19T10:54:13.782Z,69536
2017-10-19T10:55:16.225Z,62496
2017-10-19T10:56:18.666Z,54720
2017-10-19T10:57:21.119Z,44160
2017-10-19T10:58:23.568Z,39776
2017-10-19T10:59:26.362Z,36672
2017-10-19T11:00:28.800Z,48032
2017-10-19T11:01:31.250Z,46016
2017-10-19T11:02:33.696Z,43264
2017-10-19T11:03:36.138Z,56032
2017-10-19T11:04:38.588Z,59040
2017-10-19T11:05:41.020Z,51808
2017-10-19T11:06:43.492Z,34784
2017-10-19T11:07:45.934Z,27200
2017-10-19T11:08:48.373Z,32160
2017-10-19T11:09:50.826Z,27712
2017-10-19T11:10:53.265Z,29696
2017-10-19T11:11:55.710Z,27712
2017-10-19T11:12:58.166Z,28288
2017-10-19T11:14:00.605Z,28128
2017-10-19T11:15:03.056Z,30208
2017-10-19T11:16:05.848Z,35744
2017-10-19T11:17:08.288Z,50688
2017-10-19T11:18:10.748Z,56576
2017-10-19T11:19:13.181Z,47008
2017-10-19T11:20:15.622Z,43232
2017-10-19T11:21:18.064Z,52960
2017-10-19T11:22:20.511Z,55456
2017-10-19T11:23:22.960Z,45920
2017-10-19T11:24:25.407Z,39456
2017-10-19T11:25:27.842Z,49312
2017-10-19T11:26:30.285Z,57216
2017-10-19T11:27:32.730Z,65472
2017-10-19T11:28:35.175Z,65920
2017-10-19T11:29:37.618Z,75616
2017-10-19T11:30:40.051Z,57184
2017-10-19T11:31:42.498Z,47136
2017-10-19T11:32:44.947Z,43008
2017-10-19T11:33:47.385Z,33216
2017-10-19T11:34:49.832Z,29952
2017-10-19T11:35:52.268Z,29728
2017-10-19T11:36:54.718Z,31680
2017-10-19T11:37:57.168Z,33856
2017-10-19T11:38:59.618Z,32032
2017-10-19T11:40:02.402Z,30880
2017-10-19T11:41:04.862Z,30240
2017-10-19T11:42:07.304Z,32864
2017-10-19T11:43:10.112Z,34240
2017-10-19T11:44:12.573Z,33984
2017-10-19T11:45:15.009Z,33568
2017-10-19T11:46:17.808Z,35904
2017-10-19T11:47:20.256Z,33376
2017-10-19T11:48:22.698Z,33760
2017-10-19T11:49:25.155Z,33664
2017-10-19T11:50:27.602Z,35904
2017-10-19T11:51:30.028Z,36576
2017-10-19T11:52:32.857Z,36256
2017-10-19T11:53:35.301Z,45696
2017-10-19T11:54:37.748Z,50112
2017-10-19T11:55:40.195Z,39168
2017-10-19T11:56:42.621Z,39296
2017-10-19T11:57:45.427Z,50752
2017-10-19T11:58:47.876Z,49056
2017-10-19T11:59:50.312Z,44224
2017-10-19T12:00:52.769Z,45728
2017-10-19T12:01:55.217Z,53312
2017-10-19T12:02:58.019Z,63552
2017-10-19T12:04:00.472Z,60384
2017-10-19T12:05:03.271Z,72192
2017-10-19T12:06:05.708Z,69760
2017-10-19T12:07:08.510Z,66816
2017-10-19T12:08:10.946Z,70976
2017-10-19T12:09:13.394Z,70304
2017-10-19T12:10:15.831Z,61632
2017-10-19T12:11:18.280Z,62816
2017-10-19T12:12:20.728Z,61632
2017-10-19T12:13:23.173Z,62240
2017-10-19T12:14:25.624Z,58080
2017-10-19T12:15:28.067Z,61568
2017-10-19T12:16:30.522Z,59904
2017-10-19T12:17:32.951Z,59136
2017-10-19T12:18:35.395Z,58240
2017-10-19T12:19:37.842Z,57856
2017-10-19T12:20:40.283Z,57984
2017-10-19T12:21:42.740Z,53888
2017-10-19T12:22:45.182Z,51168
2017-10-19T12:23:47.615Z,45888
2017-10-19T12:24:50.081Z,47072
2017-10-19T12:25:52.893Z,31648
2017-10-19T12:26:55.334Z,26752
2017-10-19T12:27:57.784Z,41184
2017-10-19T12:29:00.236Z,49920
2017-10-19T12:30:02.688Z,46112
2017-10-19T12:31:05.141Z,40480
2017-10-19T12:32:07.577Z,46336
2017-10-19T12:33:10.753Z,49024
2017-10-19T12:34:13.203Z,43616
2017-10-19T12:35:15.654Z,35424
2017-10-19T12:36:18.837Z,50624
2017-10-19T12:37:21.277Z,48896
2017-10-19T12:38:23.725Z,48896
2017-10-19T12:39:26.176Z,33472
2017-10-19T12:40:28.987Z,31008
2017-10-19T12:41:31.426Z,29504
2017-10-19T12:42:33.872Z,52416
2017-10-19T12:43:36.361Z,31424
2017-10-19T12:44:38.775Z,48736
2017-10-19T12:45:41.220Z,42816
2017-10-19T12:46:43.670Z,38912
2017-10-19T12:47:46.104Z,33120
2017-10-19T12:48:48.567Z,27808
2017-10-19T12:49:51.008Z,22464
2017-10-19T12:50:53.460Z,20832
2017-10-19T12:51:55.939Z,30048
2017-10-19T12:52:58.739Z,24832
2017-10-19T12:54:01.193Z,34464
2017-10-19T12:55:03.652Z,36864
2017-10-19T12:56:06.088Z,27008
2017-10-19T12:57:08.899Z,41344
2017-10-19T12:58:11.349Z,39840
2017-10-19T12:59:13.791Z,36000
2017-10-19T13:00:16.242Z,34496
2017-10-19T13:01:19.044Z,33664
2017-10-19T13:02:21.478Z,31264
2017-10-19T13:03:23.941Z,32992
2017-10-19T13:04:26.413Z,31456
2017-10-19T13:05:28.860Z,34528
2017-10-19T13:06:31.306Z,28800
2017-10-19T13:07:33.752Z,27008
2017-10-19T13:08:36.197Z,25088
2017-10-19T13:09:38.643Z,26336
2017-10-19T13:10:41.096Z,28928
2017-10-19T13:11:44.247Z,33120
2017-10-19T13:12:46.682Z,31904
2017-10-19T13:13:49.127Z,30208
2017-10-19T13:14:51.578Z,27968
2017-10-19T13:15:54.030Z,28736
2017-10-19T13:16:56.476Z,28992
2017-10-19T13:17:58.930Z,24576
2017-10-19T13:19:01.373Z,23104
2017-10-19T13:20:03.823Z,22624
2017-10-19T13:21:06.275Z,22912
2017-10-19T13:22:08.709Z,23808
2017-10-19T13:23:11.156Z,24192
2017-10-19T13:24:13.602Z,23040
2017-10-19T13:25:16.048Z,22944
2017-10-19T13:26:18.497Z,23104
2017-10-19T13:27:20.932Z,23488
2017-10-19T13:28:23.366Z,22496
2017-10-19T13:29:25.828Z,21600
2017-10-19T13:30:28.266Z,20128
2017-10-19T13:31:30.710Z,19520
2017-10-19T13:32:33.162Z,19936
2017-10-19T13:33:35.598Z,20064
2017-10-19T13:34:38.045Z,19296
2017-10-19T13:35:40.496Z,18720
2017-10-19T13:36:42.929Z,17852
2017-10-19T13:37:45.375Z,17064
2017-10-19T13:38:47.831Z,16100
2017-10-19T13:39:50.275Z,15356
2017-10-19T13:40:52.711Z,14732
2017-10-19T13:41:55.157Z,14352
2017-10-19T13:42:57.597Z,14052
2017-10-19T13:44:00.053Z,13900
2017-10-19T13:45:02.494Z,13592
2017-10-19T13:46:04.932Z,13204
2017-10-19T13:47:07.379Z,13028
2017-10-19T13:48:09.823Z,12992
2017-10-19T13:49:12.269Z,13004
2017-10-19T13:50:14.714Z,13788
2017-10-19T13:51:17.152Z,14324
2017-10-19T13:52:19.961Z,15060
2017-10-19T13:53:22.399Z,14568
2017-10-19T13:54:24.835Z,13952
2017-10-19T13:55:27.286Z,14440
2017-10-19T13:56:29.729Z,15080
2017-10-19T13:57:32.158Z,15480
2017-10-19T13:58:34.593Z,15176
2017-10-19T13:59:37.040Z,15520
2017-10-19T14:00:39.476Z,15756
2017-10-19T14:01:41.926Z,15476
2017-10-19T14:02:44.355Z,15108
2017-10-19T14:03:46.792Z,14892
2017-10-19T14:04:49.248Z,14036
2017-10-19T14:05:51.688Z,13152
2017-10-19T14:06:54.143Z,12580
2017-10-19T14:07:56.572Z,12308
2017-10-19T14:08:59.025Z,12020
2017-10-19T14:10:01.450Z,11748
2017-10-19T14:11:03.905Z,11448
2017-10-19T14:12:06.340Z,11156